Time;durP1;ratioP1;P1;durP2;ratioP2;P2;SDS_P1;SDS_P2;PMS_P1;PMS_P2;Temp;Humidity;BMP_temperature;BMP_pressure;BME280_temperature;BME280_humidity;BME280_pressure;Samples;Min_cycle;Max_cycle;Signal;HPM_P1;HPM_P2
2023/07/31 00:02:04;;;;;;;0.80;0.80;;;19.50;99.90;;;;;;5014601;28;20709;-59
2023/07/31 00:04:31;;;;;;;2.00;0.70;;;19.30;99.90;;;;;;5014386;28;20210;-58
2023/07/31 00:06:58;;;;;;;2.03;1.20;;;19.30;99.90;;;;;;5014388;28;20195;-58
2023/07/31 00:09:26;;;;;;;2.83;1.33;;;19.20;99.90;;;;;;5004438;28;20780;-58
2023/07/31 00:11:53;;;;;;;3.53;2.10;;;19.10;99.90;;;;;;5012058;28;20672;-58
2023/07/31 00:14:20;;;;;;;1.10;1.00;;;19.00;99.90;;;;;;5000613;28;20624;-59
2023/07/31 00:16:47;;;;;;;0.87;0.87;;;19.00;99.90;;;;;;5007027;28;20281;-58
2023/07/31 00:19:14;;;;;;;1.00;1.00;;;18.90;99.90;;;;;;5013954;28;20227;-58
2023/07/31 00:21:41;;;;;;;1.10;1.00;;;18.90;99.90;;;;;;5011030;28;20200;-58
2023/07/31 00:24:08;;;;;;;1.43;1.33;;;18.80;99.90;;;;;;5007038;28;20262;-58
2023/07/31 00:26:36;;;;;;;1.17;1.07;;;18.80;99.90;;;;;;5006010;28;20219;-58
2023/07/31 00:29:03;;;;;;;2.30;2.20;;;18.80;99.90;;;;;;5003980;28;20794;-58
2023/07/31 00:31:30;;;;;;;2.10;1.90;;;18.90;99.90;;;;;;5010063;28;20288;-58
2023/07/31 00:33:57;;;;;;;1.20;1.20;;;18.80;99.90;;;;;;5010111;28;20264;-58
2023/07/31 00:36:24;;;;;;;2.03;1.20;;;18.80;99.90;;;;;;5010829;28;20235;-58
2023/07/31 00:38:51;;;;;;;1.50;1.00;;;18.80;99.90;;;;;;5013231;28;20223;-58
2023/07/31 00:41:18;;;;;;;1.00;0.83;;;18.70;99.90;;;;;;5008153;28;20211;-57
2023/07/31 00:43:46;;;;;;;0.90;0.90;;;18.70;99.90;;;;;;5007036;28;20206;-58
2023/07/31 00:46:13;;;;;;;1.17;1.07;;;18.70;99.90;;;;;;5007807;28;20200;-57
2023/07/31 00:48:41;;;;;;;2.10;1.13;;;18.60;99.90;;;;;;5009897;28;20226;-57
2023/07/31 00:51:09;;;;;;;1.47;1.10;;;18.50;99.90;;;;;;5013092;28;20241;-58
2023/07/31 00:53:37;;;;;;;1.70;0.93;;;18.60;99.90;;;;;;5012669;28;20203;-58
2023/07/31 00:56:05;;;;;;;1.73;0.87;;;18.60;99.90;;;;;;5011014;28;20223;-58
2023/07/31 00:58:32;;;;;;;0.90;0.90;;;18.50;99.90;;;;;;5013282;28;20266;-58
2023/07/31 01:01:01;;;;;;;1.57;1.47;;;18.40;99.90;;;;;;5009508;28;20203;-59
2023/07/31 01:03:28;;;;;;;0.70;0.70;;;18.40;99.90;;;;;;5006727;28;20245;-58
2023/07/31 01:06:06;;;;;;;1.03;1.00;;;18.30;99.90;;;;;;5008892;28;20269;-58
2023/07/31 01:08:40;;;;;;;1.33;1.23;;;18.30;99.90;;;;;;5009240;28;20223;-58
2023/07/31 01:11:15;;;;;;;1.40;1.13;;;18.20;99.90;;;;;;5004945;28;20252;-59
2023/07/31 01:13:43;;;;;;;1.90;0.97;;;18.10;99.90;;;;;;5011855;28;20660;-57
2023/07/31 01:16:11;;;;;;;1.43;0.97;;;18.10;99.90;;;;;;5005165;28;20257;-58
2023/07/31 01:18:38;;;;;;;1.67;1.57;;;18.00;99.90;;;;;;5007011;28;20245;-58
2023/07/31 01:21:22;;;;;;;2.07;1.23;;;18.00;99.90;;;;;;5009452;28;20196;-58
2023/07/31 01:24:29;;;;;;;1.80;0.87;;;18.00;99.90;;;;;;5002927;28;20208;-58
2023/07/31 01:27:07;;;;;;;4.17;1.17;;;18.00;99.90;;;;;;4997554;28;20206;-58
2023/07/31 01:29:39;;;;;;;3.20;1.20;;;17.90;99.90;;;;;;5012706;28;21028;-58
2023/07/31 01:32:08;;;;;;;1.87;1.33;;;17.90;99.90;;;;;;5008215;28;20200;-58
2023/07/31 01:34:36;;;;;;;1.33;1.10;;;17.90;99.90;;;;;;5006568;28;20200;-58
2023/07/31 01:37:04;;;;;;;1.33;1.27;;;17.90;99.90;;;;;;5011963;28;20219;-58
2023/07/31 01:39:31;;;;;;;1.77;1.10;;;17.90;99.90;;;;;;5012493;28;20770;-57
2023/07/31 01:41:59;;;;;;;1.60;1.20;;;17.80;99.90;;;;;;5009422;28;20207;-58
2023/07/31 01:44:26;;;;;;;1.40;1.37;;;17.80;99.90;;;;;;5006500;28;20249;-57
2023/07/31 01:46:53;;;;;;;1.03;1.03;;;17.90;99.90;;;;;;5010687;28;20195;-58
2023/07/31 01:49:20;;;;;;;1.43;1.33;;;17.80;99.90;;;;;;5006638;28;20275;-57
2023/07/31 01:51:47;;;;;;;2.53;1.33;;;17.80;99.90;;;;;;5008798;28;20697;-57
2023/07/31 01:54:13;;;;;;;1.47;1.37;;;17.70;99.90;;;;;;5006255;28;20208;-58
2023/07/31 01:56:40;;;;;;;1.10;1.10;;;17.70;99.90;;;;;;5009406;28;20277;-58
2023/07/31 01:59:09;;;;;;;1.27;1.00;;;17.60;99.90;;;;;;5011721;28;20717;-59
2023/07/31 02:01:36;;;;;;;2.37;1.03;;;17.50;99.90;;;;;;5010777;28;20234;-58
2023/07/31 02:04:04;;;;;;;1.77;1.30;;;17.50;99.90;;;;;;5003776;28;20253;-57
2023/07/31 02:06:31;;;;;;;2.30;1.80;;;17.40;99.90;;;;;;5010927;28;20202;-58
2023/07/31 02:08:58;;;;;;;1.03;1.03;;;17.40;99.90;;;;;;5003743;28;20219;-58
2023/07/31 02:11:25;;;;;;;1.10;1.10;;;17.40;99.90;;;;;;5011940;28;20238;-57
2023/07/31 02:13:52;;;;;;;1.33;1.23;;;17.30;99.90;;;;;;5010474;28;20203;-59
2023/07/31 02:16:20;;;;;;;3.90;1.33;;;17.30;99.90;;;;;;5011803;28;20778;-57
2023/07/31 02:18:47;;;;;;;1.37;1.07;;;17.30;99.90;;;;;;5002185;28;20296;-58
2023/07/31 02:21:14;;;;;;;0.90;0.90;;;17.20;99.90;;;;;;5011176;28;20204;-59
2023/07/31 02:23:41;;;;;;;1.13;0.93;;;17.30;99.90;;;;;;5011548;28;20348;-58
2023/07/31 02:26:08;;;;;;;1.70;1.13;;;17.30;99.90;;;;;;5011446;28;20224;-59
2023/07/31 02:28:35;;;;;;;1.20;1.20;;;17.30;99.90;;;;;;5011922;28;20674;-58
2023/07/31 02:31:02;;;;;;;1.33;1.27;;;17.30;99.90;;;;;;5010111;28;20211;-58
2023/07/31 02:33:30;;;;;;;1.33;1.23;;;17.20;99.90;;;;;;5011805;28;20273;-59
2023/07/31 02:35:57;;;;;;;1.57;1.47;;;17.20;99.90;;;;;;5012050;28;20207;-57
2023/07/31 02:38:24;;;;;;;1.40;1.40;;;17.10;99.90;;;;;;5010931;28;20219;-58
2023/07/31 02:40:51;;;;;;;2.40;1.20;;;17.10;99.90;;;;;;5003750;28;20261;-58
2023/07/31 02:43:18;;;;;;;1.60;1.60;;;17.10;99.90;;;;;;5011139;28;20198;-58
2023/07/31 02:45:45;;;;;;;4.00;1.10;;;17.10;99.90;;;;;;5002253;28;20207;-59
2023/07/31 02:48:12;;;;;;;2.27;1.27;;;17.00;99.90;;;;;;5011883;28;20281;-57
2023/07/31 02:50:40;;;;;;;1.83;1.37;;;17.00;99.90;;;;;;5011929;28;20207;-57
2023/07/31 02:53:07;;;;;;;1.17;1.17;;;16.90;99.90;;;;;;5011202;28;20689;-59
2023/07/31 02:55:34;;;;;;;2.20;1.40;;;16.90;99.90;;;;;;5012235;28;20257;-58
2023/07/31 02:58:01;;;;;;;1.23;1.10;;;16.80;99.90;;;;;;5002450;28;20219;-58
2023/07/31 03:00:28;;;;;;;1.33;1.33;;;16.80;99.90;;;;;;5010741;28;20257;-58
2023/07/31 03:02:55;;;;;;;2.20;1.43;;;16.80;99.90;;;;;;5011478;28;20203;-58
2023/07/31 03:05:22;;;;;;;1.60;1.50;;;16.70;99.90;;;;;;5011716;28;20253;-58
2023/07/31 03:07:52;;;;;;;1.60;1.43;;;16.60;99.90;;;;;;5011625;28;20265;-58
2023/07/31 03:10:19;;;;;;;1.77;1.67;;;16.70;99.90;;;;;;5003839;28;20730;-59
2023/07/31 03:12:47;;;;;;;1.33;1.23;;;16.60;99.90;;;;;;5010328;28;20261;-58
2023/07/31 03:15:14;;;;;;;1.43;1.30;;;16.60;99.90;;;;;;5008494;28;20594;-58
2023/07/31 03:17:41;;;;;;;3.23;1.80;;;16.60;99.90;;;;;;5015896;28;20219;-58
2023/07/31 03:20:09;;;;;;;2.73;1.80;;;16.60;99.90;;;;;;5011480;28;20282;-59
2023/07/31 03:22:36;;;;;;;2.10;1.60;;;16.60;99.90;;;;;;5010992;28;20229;-59
2023/07/31 03:25:05;;;;;;;2.50;1.57;;;16.60;99.90;;;;;;5015554;28;20203;-58
2023/07/31 03:27:32;;;;;;;2.53;1.53;;;16.60;99.90;;;;;;5014415;28;20191;-58
2023/07/31 03:30:00;;;;;;;1.80;1.70;;;16.50;99.90;;;;;;5007046;28;20222;-58
2023/07/31 03:32:27;;;;;;;1.77;1.67;;;16.50;99.90;;;;;;5013729;28;20203;-58
2023/07/31 03:34:54;;;;;;;0.97;0.97;;;16.40;99.90;;;;;;5007203;28;20214;-59
2023/07/31 03:37:21;;;;;;;1.60;1.57;;;16.40;99.90;;;;;;5015256;28;20277;-58
2023/07/31 03:39:48;;;;;;;2.90;1.60;;;16.30;99.90;;;;;;5015238;28;20223;-58
2023/07/31 03:42:16;;;;;;;2.77;1.67;;;16.30;99.90;;;;;;5005792;28;20211;-58
2023/07/31 03:44:43;;;;;;;1.60;1.50;;;16.30;99.90;;;;;;5014056;28;20207;-58
2023/07/31 03:47:10;;;;;;;1.77;1.67;;;16.20;99.90;;;;;;5007523;28;20271;-58
2023/07/31 03:49:38;;;;;;;1.90;1.80;;;16.30;99.90;;;;;;5015169;28;20223;-58
2023/07/31 03:52:05;;;;;;;1.73;1.73;;;16.30;99.90;;;;;;5014935;28;20815;-59
2023/07/31 03:54:32;;;;;;;1.80;1.70;;;16.30;99.90;;;;;;5014965;28;20211;-58
2023/07/31 03:56:59;;;;;;;1.43;1.33;;;16.30;99.90;;;;;;5008912;28;20219;-59
2023/07/31 03:59:27;;;;;;;1.07;1.03;;;16.30;99.90;;;;;;5014784;28;20273;-58
2023/07/31 04:01:54;;;;;;;1.27;1.27;;;16.30;99.90;;;;;;5014770;28;20207;-57
2023/07/31 04:04:21;;;;;;;2.83;1.40;;;16.40;99.90;;;;;;5012591;28;20210;-58
2023/07/31 04:06:48;;;;;;;1.30;1.30;;;16.40;99.90;;;;;;5009859;28;20237;-58
2023/07/31 04:09:15;;;;;;;1.20;1.20;;;16.30;99.90;;;;;;5014274;28;20227;-58
2023/07/31 04:11:42;;;;;;;2.13;1.30;;;16.40;99.90;;;;;;5014872;28;20645;-58
2023/07/31 04:14:09;;;;;;;4.33;1.77;;;16.40;99.90;;;;;;5013134;28;20207;-58
2023/07/31 04:16:37;;;;;;;2.70;2.50;;;16.40;99.90;;;;;;5006012;28;20255;-58
2023/07/31 04:19:05;;;;;;;1.30;1.30;;;16.50;99.90;;;;;;4995087;28;20224;-58
2023/07/31 04:21:32;;;;;;;3.10;2.20;;;16.50;99.90;;;;;;4997196;28;20254;-58
2023/07/31 04:23:59;;;;;;;4.37;2.10;;;16.50;99.90;;;;;;5013943;28;20206;-58
2023/07/31 04:26:25;;;;;;;2.93;1.87;;;16.60;99.90;;;;;;5014106;28;20211;-58
2023/07/31 04:28:52;;;;;;;1.97;1.87;;;16.60;99.90;;;;;;5014094;28;20227;-59
2023/07/31 04:31:19;;;;;;;2.13;2.00;;;16.60;99.90;;;;;;5014010;28;20242;-58
2023/07/31 04:33:48;;;;;;;4.13;1.50;;;16.60;99.90;;;;;;5014007;28;20207;-59
2023/07/31 04:36:15;;;;;;;2.33;2.00;;;16.60;99.90;;;;;;5005099;28;20203;-58
2023/07/31 04:38:42;;;;;;;1.60;1.50;;;16.60;99.90;;;;;;5013984;28;20296;-57
2023/07/31 04:41:09;;;;;;;1.97;1.67;;;16.60;99.90;;;;;;5013935;28;20625;-58
2023/07/31 04:43:38;;;;;;;2.93;1.90;;;16.50;99.90;;;;;;5013735;28;20685;-58
2023/07/31 04:46:05;;;;;;;2.07;1.90;;;16.60;99.90;;;;;;5014151;28;20210;-58
2023/07/31 04:48:32;;;;;;;2.47;1.67;;;16.60;99.90;;;;;;5013338;28;20223;-58
2023/07/31 04:51:01;;;;;;;1.70;1.50;;;16.60;99.90;;;;;;5005267;28;20237;-58
2023/07/31 04:53:28;;;;;;;1.53;1.37;;;16.70;99.90;;;;;;5008188;28;20199;-58
2023/07/31 04:55:54;;;;;;;3.60;2.07;;;16.80;99.90;;;;;;5013836;28;20207;-58
2023/07/31 04:58:22;;;;;;;1.80;1.70;;;16.90;99.90;;;;;;5013707;28;20624;-58
2023/07/31 05:00:48;;;;;;;3.10;2.13;;;17.00;99.90;;;;;;5013684;28;20253;-58
2023/07/31 05:03:15;;;;;;;3.23;1.77;;;17.00;99.90;;;;;;5008570;28;20208;-58
2023/07/31 05:05:42;;;;;;;2.50;2.40;;;17.10;99.90;;;;;;5005457;28;20665;-58
2023/07/31 05:08:11;;;;;;;3.27;1.60;;;17.20;99.90;;;;;;5007265;28;20212;-58
2023/07/31 05:10:38;;;;;;;4.07;1.63;;;17.20;99.90;;;;;;5011020;28;20576;-58
2023/07/31 05:13:05;;;;;;;1.80;1.80;;;17.30;99.90;;;;;;5016517;28;20660;-58
2023/07/31 05:15:33;;;;;;;3.47;2.03;;;17.30;99.90;;;;;;5033345;28;20202;-58
2023/07/31 05:18:00;;;;;;;1.93;1.83;;;17.40;99.90;;;;;;5021553;28;20700;-59
2023/07/31 05:20:27;;;;;;;1.87;1.77;;;17.40;99.90;;;;;;5007811;28;20668;-57
2023/07/31 05:22:54;;;;;;;1.50;1.47;;;17.40;99.90;;;;;;5013089;28;20576;-58
2023/07/31 05:25:22;;;;;;;2.07;1.97;;;17.40;99.90;;;;;;5008761;28;20204;-58
2023/07/31 05:27:51;;;;;;;2.33;1.93;;;17.60;99.90;;;;;;4993520;28;20200;-58
2023/07/31 05:30:18;;;;;;;2.17;1.40;;;17.60;99.90;;;;;;4993570;28;20744;-58
2023/07/31 05:32:45;;;;;;;2.03;1.70;;;17.60;99.90;;;;;;4999504;28;20282;-57
2023/07/31 05:35:12;;;;;;;2.00;1.40;;;17.60;99.90;;;;;;5012285;28;20230;-59
2023/07/31 05:37:39;;;;;;;2.13;2.00;;;17.60;99.90;;;;;;5013012;28;20725;-57
2023/07/31 05:40:08;;;;;;;3.07;2.17;;;17.60;99.90;;;;;;5013060;28;20219;-57
2023/07/31 05:42:38;;;;;;;1.40;1.30;;;17.60;99.90;;;;;;5012313;28;20203;-59
2023/07/31 05:45:06;;;;;;;4.83;2.13;;;17.50;99.90;;;;;;5008171;28;20200;-59
2023/07/31 05:47:33;;;;;;;2.50;2.10;;;17.60;99.90;;;;;;5009501;28;20196;-58
2023/07/31 05:50:00;;;;;;;2.60;1.80;;;17.60;99.90;;;;;;5012005;28;20756;-57
2023/07/31 05:52:28;;;;;;;2.07;2.00;;;17.50;99.90;;;;;;5012703;28;20581;-57
2023/07/31 05:54:55;;;;;;;2.10;2.00;;;17.60;99.90;;;;;;5012822;28;20762;-58
2023/07/31 05:57:23;;;;;;;2.53;2.40;;;17.70;99.90;;;;;;5012723;28;20203;-58
2023/07/31 05:59:53;;;;;;;1.67;1.63;;;17.70;99.90;;;;;;5012442;28;20723;-58
2023/07/31 06:02:20;;;;;;;2.43;2.33;;;17.60;99.90;;;;;;5012357;28;20672;-58
2023/07/31 06:04:47;;;;;;;2.07;1.87;;;17.50;99.90;;;;;;5024418;28;20268;-57
2023/07/31 06:07:14;;;;;;;4.57;1.93;;;17.60;99.90;;;;;;5016210;28;20201;-58
2023/07/31 06:09:40;;;;;;;1.73;1.60;;;17.70;99.90;;;;;;5012210;28;20705;-58
2023/07/31 06:12:08;;;;;;;2.60;2.03;;;17.80;99.90;;;;;;5012113;28;20253;-59
2023/07/31 06:14:35;;;;;;;3.07;2.00;;;18.00;99.90;;;;;;5012389;28;20203;-57
2023/07/31 06:17:04;;;;;;;2.27;1.73;;;18.20;99.90;;;;;;5008245;28;20279;-58
2023/07/31 06:19:31;;;;;;;2.03;1.60;;;18.40;99.90;;;;;;5007251;28;20223;-57
2023/07/31 06:21:58;;;;;;;4.33;2.57;;;18.50;99.90;;;;;;5010939;28;20200;-58
2023/07/31 06:24:25;;;;;;;2.23;1.47;;;18.50;99.90;;;;;;5005757;28;20262;-57
2023/07/31 06:26:52;;;;;;;3.17;2.00;;;18.50;99.90;;;;;;5007446;28;20203;-58
2023/07/31 06:29:19;;;;;;;5.20;1.90;;;18.60;99.90;;;;;;5003536;28;20278;-58
2023/07/31 06:31:46;;;;;;;1.40;1.40;;;18.60;99.90;;;;;;5003852;28;20277;-57
2023/07/31 06:34:14;;;;;;;2.43;2.00;;;18.70;99.90;;;;;;5002439;28;20269;-58
2023/07/31 06:36:41;;;;;;;2.07;1.53;;;18.80;99.90;;;;;;5011744;28;20628;-69
2023/07/31 06:39:08;;;;;;;2.45;2.30;;;18.90;99.90;;;;;;5005853;28;20452;-70
2023/07/31 06:41:36;;;;;;;3.20;1.53;;;18.90;99.90;;;;;;5008482;28;20206;-66
2023/07/31 06:44:03;;;;;;;1.43;1.30;;;18.90;99.90;;;;;;5010321;28;20199;-68
2023/07/31 06:46:30;;;;;;;2.27;2.17;;;18.90;99.90;;;;;;5012027;28;20195;-64
2023/07/31 06:48:57;;;;;;;1.87;1.83;;;19.00;99.90;;;;;;5009659;28;20235;-64
2023/07/31 06:51:26;;;;;;;1.73;1.73;;;19.10;99.90;;;;;;5003606;28;20262;-64
2023/07/31 06:53:53;;;;;;;1.73;1.63;;;19.20;99.90;;;;;;5011645;28;20277;-65
2023/07/31 06:56:20;;;;;;;2.97;2.70;;;19.20;99.90;;;;;;5005311;28;20208;-63
2023/07/31 06:58:47;;;;;;;3.33;1.87;;;19.20;99.90;;;;;;5050901;23;20651;-55
2023/07/31 07:01:14;;;;;;;8.97;3.20;;;19.30;99.90;;;;;;5031065;28;20260;-56
2023/07/31 07:03:41;;;;;;;33.67;4.80;;;19.40;99.90;;;;;;5028209;28;20206;-56
2023/07/31 07:06:08;;;;;;;2.83;2.10;;;19.60;99.90;;;;;;5022253;28;20191;-56
2023/07/31 07:08:37;;;;;;;1.63;1.53;;;19.90;99.90;;;;;;5030993;28;20647;-55
2023/07/31 07:11:04;;;;;;;1.97;1.37;;;20.20;99.90;;;;;;5026983;28;20206;-56
2023/07/31 07:13:31;;;;;;;2.07;1.70;;;20.60;99.90;;;;;;5019314;28;20203;-56
2023/07/31 07:15:58;;;;;;;2.20;1.70;;;20.80;99.90;;;;;;5021937;28;20694;-55
2023/07/31 07:18:25;;;;;;;2.00;1.63;;;21.00;99.90;;;;;;5024237;28;20281;-58
2023/07/31 07:20:53;;;;;;;2.10;1.40;;;21.10;99.90;;;;;;5020121;28;20670;-50
2023/07/31 07:23:20;;;;;;;1.73;1.63;;;21.20;99.90;;;;;;5013547;28;20302;-50
2023/07/31 07:25:49;;;;;;;2.13;2.03;;;21.00;99.90;;;;;;5028966;28;20213;-50
2023/07/31 07:28:16;;;;;;;1.30;1.30;;;20.90;99.90;;;;;;5029165;28;20280;-50
2023/07/31 07:30:43;;;;;;;3.67;1.70;;;20.90;99.90;;;;;;5028088;28;20272;-50
2023/07/31 07:33:10;;;;;;;2.30;2.10;;;21.00;99.90;;;;;;5016863;28;20439;-57
2023/07/31 07:35:37;;;;;;;1.60;1.60;;;20.90;99.90;;;;;;5011022;28;20203;-56
2023/07/31 07:38:04;;;;;;;3.63;1.80;;;21.10;99.90;;;;;;5010882;28;20227;-57
2023/07/31 07:40:31;;;;;;;3.80;2.47;;;21.30;99.90;;;;;;5011510;28;20211;-57
2023/07/31 07:43:00;;;;;;;1.90;1.80;;;21.70;99.90;;;;;;5010736;28;20203;-58
2023/07/31 07:45:27;;;;;;;2.40;1.70;;;22.00;99.90;;;;;;5016823;28;20663;-51
2023/07/31 07:47:54;;;;;;;2.63;2.43;;;22.40;99.90;;;;;;5017130;28;20716;-52
2023/07/31 07:50:21;;;;;;;6.20;2.17;;;22.50;99.90;;;;;;5016767;28;20282;-51
2023/07/31 07:52:48;;;;;;;1.47;1.30;;;22.50;99.90;;;;;;5018766;28;20207;-52
2023/07/31 07:55:15;;;;;;;2.93;1.60;;;22.80;99.90;;;;;;5024847;28;20618;-52
2023/07/31 07:57:44;;;;;;;2.30;2.03;;;22.40;99.90;;;;;;5021304;28;20311;-52
2023/07/31 08:00:14;;;;;;;2.73;1.70;;;22.40;99.90;;;;;;5019903;28;20254;-52
2023/07/31 08:02:41;;;;;;;3.53;1.80;;;22.20;99.90;;;;;;5029756;28;20202;-52
2023/07/31 08:05:08;;;;;;;2.33;1.90;;;22.70;99.90;;;;;;5025175;28;20213;-51
2023/07/31 08:07:36;;;;;;;1.67;1.63;;;23.30;99.90;;;;;;5024125;28;20218;-51
2023/07/31 08:10:03;;;;;;;2.67;1.77;;;24.40;99.90;;;;;;5026965;28;20203;-52
2023/07/31 08:12:30;;;;;;;2.40;1.30;;;25.60;99.90;;;;;;5025569;28;20253;-52
2023/07/31 08:14:57;;;;;;;1.53;1.43;;;26.50;99.90;;;;;;5031920;28;20206;-52
2023/07/31 08:17:25;;;;;;;2.83;1.87;;;26.90;99.90;;;;;;5020446;28;20219;-52
2023/07/31 08:19:52;;;;;;;2.57;1.20;;;27.60;99.90;;;;;;5021215;28;20300;-52
2023/07/31 08:22:19;;;;;;;3.90;1.67;;;28.00;99.90;;;;;;5026933;28;20210;-52
2023/07/31 08:24:46;;;;;;;2.45;1.00;;;28.20;99.90;;;;;;5027321;28;20195;-52
2023/07/31 08:27:13;;;;;;;1.95;1.17;;;28.70;99.90;;;;;;5020525;28;20603;-52
2023/07/31 08:29:40;;;;;;;1.15;1.10;;;28.60;99.90;;;;;;5025052;28;20617;-52
2023/07/31 08:32:08;;;;;;;1.25;1.15;;;29.10;99.90;;;;;;5032650;28;20260;-52
2023/07/31 08:34:36;;;;;;;1.02;1.00;;;29.30;99.90;;;;;;5033666;28;20207;-52
2023/07/31 08:37:03;;;;;;;4.53;1.65;;;29.00;99.90;;;;;;5025874;28;20215;-52
2023/07/31 08:39:30;;;;;;;1.02;0.95;;;28.90;99.90;;;;;;5013864;28;20318;-52
2023/07/31 08:42:00;;;;;;;3.60;1.70;;;29.30;99.90;;;;;;5015663;28;20604;-53
2023/07/31 08:44:27;;;;;;;1.40;1.30;;;29.30;99.90;;;;;;5021661;28;20246;-52
2023/07/31 08:46:54;;;;;;;1.48;1.38;;;29.40;99.90;;;;;;5013592;28;20227;-52
2023/07/31 08:49:23;;;;;;;1.50;1.38;;;29.00;99.90;;;;;;5014089;28;20199;-52
2023/07/31 08:51:53;;;;;;;1.63;1.52;;;29.30;99.90;;;;;;5013491;28;20238;-52
2023/07/31 08:54:20;;;;;;;2.25;1.25;;;28.90;99.90;;;;;;5013384;28;20240;-52
2023/07/31 08:56:48;;;;;;;4.10;1.92;;;29.40;99.90;;;;;;5018410;28;20229;-52
2023/07/31 08:59:18;;;;;;;2.67;1.27;;;29.40;99.90;;;;;;5021529;28;20293;-51
2023/07/31 09:01:50;;;;;;;1.73;1.63;;;28.50;99.90;;;;;;5013345;28;20286;-51
2023/07/31 09:04:19;;;;;;;1.35;1.25;;;27.20;99.90;;;;;;5013425;28;20217;-52
2023/07/31 09:06:48;;;;;;;1.08;0.98;;;26.30;99.90;;;;;;5013757;28;20771;-52
2023/07/31 09:09:17;;;;;;;1.90;1.80;;;26.60;99.90;;;;;;5012314;28;20203;-52
2023/07/31 09:11:44;;;;;;;1.58;1.10;;;27.80;99.90;;;;;;5028529;28;20714;-52
2023/07/31 09:14:11;;;;;;;4.68;1.40;;;27.80;99.90;;;;;;5017085;28;20270;-52
2023/07/31 09:16:53;;;;;;;1.65;1.55;;;28.20;99.90;;;;;;5032578;28;20248;-52
2023/07/31 09:19:27;;;;;;;2.05;1.75;;;28.90;99.90;;;;;;5032863;28;20295;-52
2023/07/31 09:21:54;;;;;;;1.63;1.20;;;29.20;99.90;;;;;;5032791;28;20206;-52
2023/07/31 09:24:29;;;;;;;1.15;1.15;;;29.10;99.90;;;;;;5031586;28;20218;-52
2023/07/31 09:26:58;;;;;;;2.17;1.80;;;29.60;99.90;;;;;;5028155;28;20218;-52
2023/07/31 09:29:26;;;;;;;2.17;1.33;;;30.30;99.90;;;;;;5020881;28;20665;-53
2023/07/31 09:31:54;;;;;;;1.05;1.05;;;30.40;99.40;;;;;;5012889;28;20297;-53
2023/07/31 09:34:21;;;;;;;1.95;1.10;;;30.20;99.50;;;;;;5012518;28;20258;-52
2023/07/31 09:36:50;;;;;;;2.20;1.75;;;29.20;99.90;;;;;;5012613;28;20227;-51
2023/07/31 09:39:19;;;;;;;2.03;1.70;;;28.80;99.90;;;;;;5012959;28;20297;-53
2023/07/31 09:41:54;;;;;;;2.90;1.13;;;28.80;99.80;;;;;;5015925;28;20298;-52
2023/07/31 09:44:21;;;;;;;2.28;1.60;;;28.50;99.90;;;;;;5018726;28;20202;-51
2023/07/31 09:46:48;;;;;;;3.22;1.10;;;27.80;99.90;;;;;;5012508;28;20293;-53
2023/07/31 09:49:15;;;;;;;4.10;1.83;;;28.40;99.90;;;;;;5012544;28;20730;-52
2023/07/31 09:51:43;;;;;;;3.38;1.88;;;28.70;99.90;;;;;;5012479;28;20253;-52
2023/07/31 09:54:12;;;;;;;2.65;1.73;;;28.30;99.90;;;;;;5014334;28;20284;-52
2023/07/31 09:56:43;;;;;;;2.20;1.52;;;28.80;99.90;;;;;;5022024;28;20289;-52
2023/07/31 09:59:12;;;;;;;1.95;1.50;;;28.80;99.90;;;;;;5012249;28;20626;-54
2023/07/31 10:01:40;;;;;;;2.55;1.35;;;29.00;99.90;;;;;;5030746;28;20285;-52
2023/07/31 10:04:09;;;;;;;1.38;1.38;;;29.10;99.90;;;;;;5031680;28;20636;-52
2023/07/31 10:06:37;;;;;;;1.30;1.00;;;29.90;99.60;;;;;;5031609;28;20728;-52
2023/07/31 10:09:06;;;;;;;2.03;1.15;;;30.40;99.70;;;;;;5031040;28;20209;-52
2023/07/31 10:11:38;;;;;;;1.42;1.33;;;30.60;99.90;;;;;;5023349;28;20644;-52
2023/07/31 10:14:08;;;;;;;1.27;1.17;;;29.70;98.50;;;;;;5012416;28;20214;-52
2023/07/31 10:16:38;;;;;;;1.73;1.58;;;28.70;99.90;;;;;;5011885;28;20226;-52
2023/07/31 10:19:08;;;;;;;1.40;1.30;;;27.90;99.90;;;;;;5011769;28;20227;-51
2023/07/31 10:21:37;;;;;;;1.13;1.13;;;28.00;99.90;;;;;;5011725;28;20561;-52
2023/07/31 10:24:05;;;;;;;2.95;1.70;;;28.70;99.90;;;;;;5017560;28;20539;-52
2023/07/31 10:26:33;;;;;;;1.73;1.35;;;29.50;99.90;;;;;;5016452;28;20207;-51
2023/07/31 10:29:01;;;;;;;1.58;1.17;;;29.30;99.90;;;;;;5011773;28;20371;-52
2023/07/31 10:31:28;;;;;;;2.08;1.40;;;29.80;99.90;;;;;;5012172;28;20257;-52
2023/07/31 10:33:59;;;;;;;3.40;1.80;;;29.90;99.90;;;;;;5011700;28;20208;-52
2023/07/31 10:36:26;;;;;;;2.55;1.55;;;29.50;99.60;;;;;;5013883;28;20271;-52
2023/07/31 10:38:56;;;;;;;5.90;2.33;;;30.00;99.90;;;;;;5023081;28;20221;-52
2023/07/31 10:41:30;;;;;;;3.45;1.58;;;30.20;98.80;;;;;;5019833;28;20202;-53
2023/07/31 10:43:59;;;;;;;1.83;1.35;;;30.00;99.90;;;;;;5010231;28;20474;-52
2023/07/31 10:46:28;;;;;;;1.25;1.15;;;29.90;99.80;;;;;;5011622;28;20281;-52
2023/07/31 10:49:01;;;;;;;4.03;1.60;;;29.70;99.90;;;;;;5011797;28;20236;-51
2023/07/31 10:51:35;;;;;;;1.83;1.45;;;29.20;99.90;;;;;;5015221;28;20199;-58
2023/07/31 10:54:12;;;;;;;1.48;1.27;;;28.30;99.90;;;;;;5017126;28;20286;-58
2023/07/31 10:56:39;;;;;;;2.90;1.65;;;28.40;99.90;;;;;;5018422;28;21052;-58
2023/07/31 10:59:07;;;;;;;1.90;1.42;;;28.10;99.90;;;;;;5011023;28;20226;-57
2023/07/31 11:01:53;;;;;;;1.65;1.52;;;27.70;99.90;;;;;;5010792;28;20700;-57
2023/07/31 11:04:25;;;;;;;1.90;1.73;;;27.70;99.90;;;;;;5022897;28;20206;-58
2023/07/31 11:06:59;;;;;;;1.33;1.23;;;26.90;99.90;;;;;;5013171;28;20297;-56
2023/07/31 11:09:30;;;;;;;2.60;1.33;;;26.90;99.90;;;;;;5011149;28;20253;-56
2023/07/31 11:11:57;;;;;;;4.13;1.80;;;26.50;99.90;;;;;;5011491;28;20285;-55
2023/07/31 11:14:27;;;;;;;1.70;1.50;;;26.30;99.90;;;;;;5010806;28;20257;-57
2023/07/31 11:16:54;;;;;;;4.50;2.53;;;26.20;99.90;;;;;;5012429;28;20219;-55
2023/07/31 11:19:26;;;;;;;3.73;1.40;;;25.80;99.90;;;;;;5024361;28;20443;-51
2023/07/31 11:21:53;;;;;;;4.77;1.97;;;25.40;99.90;;;;;;5029953;28;20210;-51
2023/07/31 11:24:21;;;;;;;1.70;1.33;;;25.30;99.90;;;;;;5030762;28;20293;-56
2023/07/31 11:26:52;;;;;;;2.40;1.97;;;25.40;99.90;;;;;;5030857;28;20284;-57
2023/07/31 11:29:19;;;;;;;3.90;1.60;;;25.50;99.90;;;;;;5030879;28;20195;-57
2023/07/31 11:31:49;;;;;;;5.93;1.50;;;26.00;99.90;;;;;;5021376;28;20291;-58
2023/07/31 11:34:17;;;;;;;3.70;1.57;;;26.00;99.90;;;;;;5021528;28;20249;-58
2023/07/31 11:36:56;;;;;;;1.60;1.30;;;26.10;99.90;;;;;;5014913;28;20234;-57
2023/07/31 11:39:24;;;;;;;4.37;1.83;;;26.00;99.90;;;;;;5015232;28;20262;-51
2023/07/31 11:41:50;;;;;;;1.50;1.33;;;25.80;99.90;;;;;;5014633;28;20207;-61
2023/07/31 11:44:17;;;;;;;2.70;1.60;;;25.30;99.90;;;;;;5015492;28;20203;-55
2023/07/31 11:46:45;;;;;;;3.37;1.80;;;24.60;99.90;;;;;;5025206;28;20226;-56
2023/07/31 11:49:12;;;;;;;1.90;1.80;;;24.50;99.90;;;;;;5014470;28;20298;-59
2023/07/31 11:51:39;;;;;;;3.47;1.73;;;24.50;99.90;;;;;;5014701;28;20254;-55
2023/07/31 11:54:08;;;;;;;1.30;1.30;;;24.60;99.90;;;;;;5014513;28;20207;-52
2023/07/31 11:56:35;;;;;;;1.70;1.60;;;24.80;99.90;;;;;;5014828;28;20262;-53
2023/07/31 11:59:05;;;;;;;2.27;1.20;;;25.30;99.90;;;;;;5014646;28;20211;-52
2023/07/31 12:01:32;;;;;;;2.77;2.13;;;25.60;99.90;;;;;;5029108;28;20202;-52
2023/07/31 12:04:00;;;;;;;4.90;2.03;;;25.90;99.90;;;;;;5014642;28;20203;-53
2023/07/31 12:06:34;;;;;;;3.07;1.60;;;25.60;99.90;;;;;;5014182;28;20204;-53
2023/07/31 12:09:03;;;;;;;2.60;1.30;;;25.30;99.90;;;;;;5021202;28;20282;-53
2023/07/31 12:11:32;;;;;;;1.90;1.80;;;25.20;99.90;;;;;;5014109;28;20199;-52
2023/07/31 12:13:59;;;;;;;1.80;1.43;;;24.90;99.90;;;;;;5025193;28;20265;-53
2023/07/31 12:16:29;;;;;;;2.10;1.57;;;24.90;99.90;;;;;;5033934;28;20199;-53
2023/07/31 12:18:56;;;;;;;4.43;1.80;;;24.90;99.90;;;;;;5033733;28;20212;-53
2023/07/31 12:21:22;;;;;;;2.47;1.83;;;24.80;99.90;;;;;;5027530;28;20238;-53
2023/07/31 12:23:49;;;;;;;2.07;1.87;;;24.80;99.90;;;;;;5021787;28;20285;-53
2023/07/31 12:26:17;;;;;;;4.40;1.40;;;24.70;99.90;;;;;;5017521;28;20264;-53
2023/07/31 12:28:47;;;;;;;2.47;1.60;;;24.40;99.90;;;;;;5025524;28;20222;-53
2023/07/31 12:31:17;;;;;;;2.33;1.40;;;24.40;99.90;;;;;;5020309;28;20263;-53
2023/07/31 12:33:44;;;;;;;1.90;1.33;;;24.40;99.90;;;;;;5013665;28;20203;-53
2023/07/31 12:36:13;;;;;;;2.63;1.77;;;24.30;99.90;;;;;;5014018;28;20298;-53
2023/07/31 12:38:40;;;;;;;1.73;1.63;;;24.00;99.90;;;;;;5022482;28;20230;-53
2023/07/31 12:41:07;;;;;;;2.63;1.67;;;24.10;99.90;;;;;;5013650;28;20704;-53
2023/07/31 12:43:34;;;;;;;1.70;1.50;;;24.30;99.90;;;;;;5013463;28;20203;-53
2023/07/31 12:46:03;;;;;;;5.90;1.60;;;24.60;99.90;;;;;;5013871;28;20649;-54
2023/07/31 12:48:30;;;;;;;1.67;1.57;;;24.80;99.90;;;;;;5033232;28;20641;-53
2023/07/31 12:50:57;;;;;;;7.53;1.93;;;25.00;99.90;;;;;;5033376;28;20630;-53
2023/07/31 12:53:24;;;;;;;2.03;1.50;;;25.40;99.90;;;;;;5024977;28;20254;-53